RUK8491 EGAE-EGCC
Flight info
| Callsign | RUK8491 |
|---|---|
| Flight time | 0h 43m |
| Altitude | 25000 |
| Route | BELZU L10 DUFFY L15 PEPOD Q38 GIGTO |
| Aircraft | B738/M-SDE1E2E3FGIJ1LRWYZ/SB1 |
Departure
| Time | 2026-04-21 11:37 |
|---|---|
| Airport | City of Derry Airport (EGAE) |
Arrival
| Time | 2026-04-21 12:20 |
|---|---|
| Airport | Manchester Airport (EGCC) |
| Time | Latitude | Longitude | Altitude | Speed | Heading |
|---|---|---|---|---|---|
| 2026-04-21 11:07 | 55.04023 | -7.15681 | 30 ft | 0 kts | 168° |
| 2026-04-21 11:31 | 55.04044 | -7.15687 | 30 ft | 4 kts | 178° |
| 2026-04-21 11:31 | 55.04070 | -7.15683 | 30 ft | 4 kts | 202° |
| 2026-04-21 11:31 | 55.04088 | -7.15659 | 29 ft | 3 kts | 255° |
| 2026-04-21 11:32 | 55.04089 | -7.15654 | 29 ft | 0 kts | 258° |
| 2026-04-21 11:33 | 55.04088 | -7.15660 | 29 ft | 2 kts | 258° |
| 2026-04-21 11:34 | 55.04083 | -7.15709 | 30 ft | 6 kts | 259° |
| 2026-04-21 11:34 | 55.04074 | -7.15809 | 30 ft | 10 kts | 271° |
| 2026-04-21 11:34 | 55.04122 | -7.15885 | 30 ft | 10 kts | 344° |
| 2026-04-21 11:34 | 55.04204 | -7.15919 | 30 ft | 14 kts | 346° |
| 2026-04-21 11:35 | 55.04293 | -7.16015 | 30 ft | 18 kts | 276° |
| 2026-04-21 11:35 | 55.04255 | -7.16268 | 30 ft | 24 kts | 254° |
| 2026-04-21 11:35 | 55.04202 | -7.16576 | 32 ft | 27 kts | 253° |
| 2026-04-21 11:35 | 55.04149 | -7.16882 | 30 ft | 25 kts | 253° |
| 2026-04-21 11:36 | 55.04099 | -7.17167 | 31 ft | 24 kts | 253° |
| 2026-04-21 11:36 | 55.04047 | -7.17429 | 31 ft | 21 kts | 234° |
| 2026-04-21 11:36 | 55.03994 | -7.17615 | 28 ft | 12 kts | 276° |
| 2026-04-21 11:36 | 55.04021 | -7.17612 | 28 ft | 9 kts | 61° |
| 2026-04-21 11:37 | 55.04099 | -7.17165 | 31 ft | 75 kts | 73° |
| 2026-04-21 11:37 | 55.04318 | -7.15919 | 33 ft | 137 kts | 72° |
| 2026-04-21 11:37 | 55.04627 | -7.14218 | 644 ft | 143 kts | 73° |
| 2026-04-21 11:37 | 55.04923 | -7.12535 | 1471 ft | 152 kts | 76° |
| 2026-04-21 11:38 | 55.05251 | -7.10643 | 1922 ft | 179 kts | 76° |
| 2026-04-21 11:38 | 55.05619 | -7.08522 | 2581 ft | 186 kts | 76° |
| 2026-04-21 11:38 | 55.05992 | -7.06350 | 3337 ft | 188 kts | 78° |
| 2026-04-21 11:38 | 55.05893 | -7.04109 | 4071 ft | 190 kts | 119° |
| 2026-04-21 11:39 | 55.05066 | -7.02294 | 4923 ft | 196 kts | 128° |
| 2026-04-21 11:39 | 55.04109 | -7.00388 | 5286 ft | 225 kts | 129° |
| 2026-04-21 11:39 | 55.03020 | -6.98242 | 5816 ft | 243 kts | 129° |
| 2026-04-21 11:39 | 55.01877 | -6.96003 | 6648 ft | 249 kts | 129° |
| 2026-04-21 11:40 | 55.00725 | -6.93747 | 7581 ft | 250 kts | 129° |
| 2026-04-21 11:40 | 54.99555 | -6.91456 | 8379 ft | 256 kts | 129° |
| 2026-04-21 11:40 | 54.98373 | -6.89139 | 9296 ft | 256 kts | 129° |
| 2026-04-21 11:40 | 54.97192 | -6.86826 | 10121 ft | 261 kts | 130° |
| 2026-04-21 11:41 | 54.95977 | -6.84444 | 10867 ft | 268 kts | 130° |
| 2026-04-21 11:41 | 54.94679 | -6.81898 | 11061 ft | 294 kts | 130° |
| 2026-04-21 11:41 | 54.93289 | -6.79176 | 11591 ft | 305 kts | 130° |
| 2026-04-21 11:41 | 54.91869 | -6.76396 | 12376 ft | 310 kts | 131° |
| 2026-04-21 11:42 | 54.90427 | -6.73579 | 13189 ft | 314 kts | 131° |
| 2026-04-21 11:42 | 54.88968 | -6.70730 | 14022 ft | 318 kts | 131° |
| 2026-04-21 11:42 | 54.87487 | -6.67843 | 14836 ft | 321 kts | 131° |
| 2026-04-21 11:42 | 54.85996 | -6.64937 | 15673 ft | 324 kts | 131° |
| 2026-04-21 11:43 | 54.84490 | -6.62007 | 16481 ft | 327 kts | 131° |
| 2026-04-21 11:43 | 54.82967 | -6.59044 | 17284 ft | 331 kts | 131° |
| 2026-04-21 11:43 | 54.81420 | -6.56041 | 18002 ft | 337 kts | 131° |
| 2026-04-21 11:43 | 54.79843 | -6.52981 | 18738 ft | 343 kts | 131° |
| 2026-04-21 11:44 | 54.78246 | -6.49887 | 19420 ft | 346 kts | 131° |
| 2026-04-21 11:44 | 54.76634 | -6.46767 | 20106 ft | 349 kts | 131° |
| 2026-04-21 11:44 | 54.75036 | -6.43681 | 21193 ft | 339 kts | 131° |
| 2026-04-21 11:44 | 54.73461 | -6.40641 | 21920 ft | 344 kts | 132° |
| 2026-04-21 11:45 | 54.71839 | -6.37516 | 22367 ft | 354 kts | 132° |
| 2026-04-21 11:45 | 54.70177 | -6.34315 | 22928 ft | 360 kts | 132° |
| 2026-04-21 11:45 | 54.68508 | -6.31108 | 23825 ft | 356 kts | 133° |
| 2026-04-21 11:45 | 54.66852 | -6.27927 | 24406 ft | 361 kts | 133° |
| 2026-04-21 11:46 | 54.65150 | -6.24665 | 24621 ft | 368 kts | 133° |
| 2026-04-21 11:46 | 54.63441 | -6.21393 | 24855 ft | 366 kts | 134° |
| 2026-04-21 11:46 | 54.61745 | -6.18149 | 25087 ft | 362 kts | 134° |
| 2026-04-21 11:46 | 54.60081 | -6.14970 | 25326 ft | 363 kts | 134° |
| 2026-04-21 11:47 | 54.58372 | -6.11711 | 25447 ft | 374 kts | 134° |
| 2026-04-21 11:47 | 54.56597 | -6.08336 | 25461 ft | 385 kts | 134° |
| 2026-04-21 11:47 | 54.54798 | -6.04918 | 25476 ft | 384 kts | 134° |
| 2026-04-21 11:47 | 54.53017 | -6.01530 | 25473 ft | 379 kts | 134° |
| 2026-04-21 11:48 | 54.51289 | -5.98250 | 25471 ft | 376 kts | 134° |
| 2026-04-21 11:48 | 54.49525 | -5.94907 | 25487 ft | 378 kts | 134° |
| 2026-04-21 11:48 | 54.47750 | -5.91550 | 25483 ft | 380 kts | 135° |
| 2026-04-21 11:48 | 54.45966 | -5.88182 | 25486 ft | 381 kts | 134° |
| 2026-04-21 11:49 | 54.44180 | -5.84812 | 25482 ft | 382 kts | 135° |
| 2026-04-21 11:49 | 54.42388 | -5.81437 | 25477 ft | 383 kts | 135° |
| 2026-04-21 11:49 | 54.40592 | -5.78060 | 25470 ft | 383 kts | 135° |
| 2026-04-21 11:49 | 54.38798 | -5.74689 | 25472 ft | 382 kts | 135° |
| 2026-04-21 11:50 | 54.37005 | -5.71326 | 25469 ft | 381 kts | 135° |
| 2026-04-21 11:50 | 54.35215 | -5.67971 | 25445 ft | 381 kts | 135° |
| 2026-04-21 11:50 | 54.33425 | -5.64623 | 25460 ft | 381 kts | 135° |
| 2026-04-21 11:50 | 54.31631 | -5.61274 | 25454 ft | 382 kts | 135° |
| 2026-04-21 11:51 | 54.29833 | -5.57920 | 25460 ft | 383 kts | 135° |
| 2026-04-21 11:51 | 54.28030 | -5.54560 | 25462 ft | 383 kts | 135° |
| 2026-04-21 11:51 | 54.26224 | -5.51200 | 25460 ft | 384 kts | 135° |
| 2026-04-21 11:51 | 54.24411 | -5.47830 | 25459 ft | 385 kts | 135° |
| 2026-04-21 11:52 | 54.22596 | -5.44460 | 25455 ft | 386 kts | 135° |
| 2026-04-21 11:52 | 54.20774 | -5.41087 | 25450 ft | 386 kts | 135° |
| 2026-04-21 11:52 | 54.18963 | -5.37700 | 25449 ft | 387 kts | 133° |
| 2026-04-21 11:52 | 54.17326 | -5.34042 | 25457 ft | 388 kts | 128° |
| 2026-04-21 11:53 | 54.15752 | -5.30304 | 25450 ft | 388 kts | 127° |
| 2026-04-21 11:53 | 54.14188 | -5.26557 | 25452 ft | 387 kts | 127° |
| 2026-04-21 11:53 | 54.12628 | -5.22830 | 25428 ft | 386 kts | 127° |
| 2026-04-21 11:53 | 54.11062 | -5.19115 | 25436 ft | 386 kts | 128° |
| 2026-04-21 11:54 | 54.09491 | -5.15406 | 25441 ft | 386 kts | 128° |
| 2026-04-21 11:54 | 54.07912 | -5.11696 | 25452 ft | 387 kts | 128° |
| 2026-04-21 11:54 | 54.06327 | -5.07983 | 25452 ft | 388 kts | 128° |
| 2026-04-21 11:54 | 54.04735 | -5.04260 | 25450 ft | 390 kts | 128° |
| 2026-04-21 11:55 | 54.03137 | -5.00526 | 25454 ft | 391 kts | 128° |
| 2026-04-21 11:55 | 54.01559 | -4.96844 | 25452 ft | 392 kts | 128° |
| 2026-04-21 11:55 | 53.99952 | -4.93103 | 25445 ft | 392 kts | 128° |
| 2026-04-21 11:55 | 53.98356 | -4.89338 | 25443 ft | 393 kts | 124° |
| 2026-04-21 11:56 | 53.97047 | -4.85253 | 25436 ft | 395 kts | 113° |
| 2026-04-21 11:56 | 53.96129 | -4.80862 | 25447 ft | 394 kts | 108° |
| 2026-04-21 11:56 | 53.95289 | -4.76428 | 25432 ft | 394 kts | 108° |
| 2026-04-21 11:56 | 53.94464 | -4.71994 | 25432 ft | 394 kts | 107° |
| 2026-04-21 11:57 | 53.93640 | -4.67583 | 25426 ft | 389 kts | 107° |
| 2026-04-21 11:57 | 53.93098 | -4.64706 | 25417 ft | 385 kts | 108° |
| 2026-04-21 11:57 | 53.92279 | -4.60402 | 25422 ft | 383 kts | 108° |
| 2026-04-21 11:57 | 53.91451 | -4.56089 | 25439 ft | 385 kts | 108° |
| 2026-04-21 11:58 | 53.90615 | -4.51762 | 25425 ft | 388 kts | 108° |
| 2026-04-21 11:58 | 53.89766 | -4.47394 | 25273 ft | 393 kts | 108° |
| 2026-04-21 11:58 | 53.88905 | -4.42981 | 24897 ft | 394 kts | 108° |
| 2026-04-21 11:58 | 53.88041 | -4.38567 | 24467 ft | 395 kts | 108° |
| 2026-04-21 11:59 | 53.86892 | -4.32715 | 23835 ft | 396 kts | 108° |
| 2026-04-21 11:59 | 53.86303 | -4.29721 | 23444 ft | 396 kts | 108° |
| 2026-04-21 11:59 | 53.85431 | -4.25301 | 22918 ft | 395 kts | 108° |
| 2026-04-21 11:59 | 53.84560 | -4.20890 | 22395 ft | 395 kts | 108° |
| 2026-04-21 12:00 | 53.83688 | -4.16489 | 21858 ft | 394 kts | 108° |
| 2026-04-21 12:00 | 53.82817 | -4.12102 | 21332 ft | 392 kts | 108° |
| 2026-04-21 12:00 | 53.81953 | -4.07757 | 20917 ft | 387 kts | 108° |
| 2026-04-21 12:00 | 53.81109 | -4.03521 | 20495 ft | 383 kts | 108° |
| 2026-04-21 12:01 | 53.80276 | -3.99355 | 20076 ft | 378 kts | 109° |
| 2026-04-21 12:01 | 53.79439 | -3.95172 | 19649 ft | 373 kts | 109° |
| 2026-04-21 12:01 | 53.78612 | -3.91047 | 19237 ft | 368 kts | 109° |
| 2026-04-21 12:01 | 53.77793 | -3.86976 | 18824 ft | 363 kts | 109° |
| 2026-04-21 12:02 | 53.76984 | -3.82958 | 18360 ft | 358 kts | 109° |
| 2026-04-21 12:02 | 53.75399 | -3.75116 | 17510 ft | 347 kts | 109° |
| 2026-04-21 12:02 | 53.74621 | -3.71281 | 17091 ft | 343 kts | 109° |
| 2026-04-21 12:03 | 53.73853 | -3.67496 | 16694 ft | 338 kts | 109° |
| 2026-04-21 12:03 | 53.73093 | -3.63762 | 16278 ft | 334 kts | 109° |
| 2026-04-21 12:03 | 53.72341 | -3.60073 | 15887 ft | 330 kts | 110° |
| 2026-04-21 12:03 | 53.71597 | -3.56431 | 15493 ft | 326 kts | 110° |
| 2026-04-21 12:04 | 53.70859 | -3.52824 | 15099 ft | 323 kts | 110° |
| 2026-04-21 12:04 | 53.70129 | -3.49262 | 14717 ft | 320 kts | 110° |
| 2026-04-21 12:04 | 53.69404 | -3.45729 | 14327 ft | 317 kts | 110° |
| 2026-04-21 12:04 | 53.68683 | -3.42227 | 13912 ft | 315 kts | 109° |
| 2026-04-21 12:05 | 53.67967 | -3.38750 | 13492 ft | 313 kts | 109° |
| 2026-04-21 12:05 | 53.67255 | -3.35304 | 13093 ft | 310 kts | 109° |
| 2026-04-21 12:05 | 53.66551 | -3.31896 | 12710 ft | 306 kts | 109° |
| 2026-04-21 12:05 | 53.65851 | -3.28520 | 12331 ft | 303 kts | 109° |
| 2026-04-21 12:06 | 53.65157 | -3.25174 | 11956 ft | 301 kts | 109° |
| 2026-04-21 12:06 | 53.64470 | -3.21865 | 11583 ft | 298 kts | 109° |
| 2026-04-21 12:06 | 53.63785 | -3.18577 | 11213 ft | 296 kts | 109° |
| 2026-04-21 12:06 | 53.63106 | -3.15319 | 10868 ft | 293 kts | 109° |
| 2026-04-21 12:07 | 53.62443 | -3.12141 | 10784 ft | 282 kts | 109° |
| 2026-04-21 12:07 | 53.61805 | -3.09094 | 10707 ft | 270 kts | 109° |
| 2026-04-21 12:07 | 53.61189 | -3.06153 | 10542 ft | 263 kts | 109° |
| 2026-04-21 12:07 | 53.60583 | -3.03263 | 10278 ft | 261 kts | 109° |
| 2026-04-21 12:08 | 53.59980 | -3.00392 | 9980 ft | 259 kts | 109° |
| 2026-04-21 12:08 | 53.59390 | -2.97584 | 9652 ft | 259 kts | 109° |
| 2026-04-21 12:08 | 53.58789 | -2.94734 | 9331 ft | 258 kts | 109° |
| 2026-04-21 12:08 | 53.58192 | -2.91900 | 9037 ft | 256 kts | 109° |
| 2026-04-21 12:09 | 53.57349 | -2.89281 | 8743 ft | 257 kts | 130° |
| 2026-04-21 12:09 | 53.55901 | -2.87514 | 8463 ft | 259 kts | 147° |
| 2026-04-21 12:09 | 53.54306 | -2.86120 | 8150 ft | 258 kts | 149° |
| 2026-04-21 12:09 | 53.52695 | -2.84773 | 7833 ft | 258 kts | 149° |
| 2026-04-21 12:10 | 53.51088 | -2.83440 | 7540 ft | 257 kts | 149° |
| 2026-04-21 12:10 | 53.49484 | -2.82119 | 7285 ft | 255 kts | 149° |
| 2026-04-21 12:10 | 53.47896 | -2.80822 | 7036 ft | 253 kts | 149° |
| 2026-04-21 12:10 | 53.46316 | -2.79537 | 6743 ft | 252 kts | 149° |
| 2026-04-21 12:11 | 53.44741 | -2.78257 | 6431 ft | 252 kts | 149° |
| 2026-04-21 12:11 | 53.43164 | -2.76979 | 6068 ft | 253 kts | 149° |
| 2026-04-21 12:11 | 53.41579 | -2.75700 | 5737 ft | 253 kts | 149° |
| 2026-04-21 12:11 | 53.39994 | -2.74429 | 5443 ft | 252 kts | 149° |
| 2026-04-21 12:12 | 53.38410 | -2.73174 | 5139 ft | 251 kts | 149° |
| 2026-04-21 12:12 | 53.36827 | -2.71929 | 4836 ft | 251 kts | 150° |
| 2026-04-21 12:12 | 53.35247 | -2.70693 | 4567 ft | 250 kts | 150° |
| 2026-04-21 12:12 | 53.33672 | -2.69463 | 4297 ft | 250 kts | 150° |
| 2026-04-21 12:13 | 53.32096 | -2.68234 | 4005 ft | 249 kts | 150° |
| 2026-04-21 12:13 | 53.30531 | -2.67017 | 3777 ft | 246 kts | 150° |
| 2026-04-21 12:13 | 53.29048 | -2.65741 | 3700 ft | 233 kts | 139° |
| 2026-04-21 12:13 | 53.27839 | -2.64053 | 3637 ft | 222 kts | 134° |
| 2026-04-21 12:14 | 53.26683 | -2.62418 | 3579 ft | 214 kts | 135° |
| 2026-04-21 12:14 | 53.25561 | -2.60857 | 3518 ft | 206 kts | 135° |
| 2026-04-21 12:14 | 53.24473 | -2.59360 | 3443 ft | 199 kts | 135° |
| 2026-04-21 12:14 | 53.23450 | -2.57870 | 3351 ft | 190 kts | 123° |
| 2026-04-21 12:15 | 53.23023 | -2.55935 | 3254 ft | 174 kts | 87° |
| 2026-04-21 12:15 | 53.23193 | -2.54014 | 3205 ft | 165 kts | 80° |
| 2026-04-21 12:15 | 53.23397 | -2.52133 | 3103 ft | 164 kts | 79° |
| 2026-04-21 12:15 | 53.23856 | -2.50416 | 3010 ft | 164 kts | 53° |
| 2026-04-21 12:16 | 53.24567 | -2.48981 | 2940 ft | 163 kts | 57° |
| 2026-04-21 12:16 | 53.25257 | -2.47466 | 2741 ft | 160 kts | 56° |
| 2026-04-21 12:16 | 53.25944 | -2.46021 | 2535 ft | 158 kts | 55° |
| 2026-04-21 12:16 | 53.26627 | -2.44602 | 2297 ft | 155 kts | 55° |
| 2026-04-21 12:17 | 53.27296 | -2.43223 | 2087 ft | 151 kts | 56° |
| 2026-04-21 12:17 | 53.27939 | -2.41895 | 1875 ft | 147 kts | 55° |
| 2026-04-21 12:17 | 53.28579 | -2.40572 | 1696 ft | 147 kts | 54° |
| 2026-04-21 12:17 | 53.29221 | -2.39246 | 1497 ft | 146 kts | 54° |
| 2026-04-21 12:18 | 53.29852 | -2.37944 | 1296 ft | 140 kts | 55° |
| 2026-04-21 12:18 | 53.30438 | -2.36738 | 1100 ft | 129 kts | 56° |
| 2026-04-21 12:18 | 53.31002 | -2.35575 | 928 ft | 132 kts | 54° |
| 2026-04-21 12:18 | 53.31593 | -2.34354 | 738 ft | 134 kts | 54° |
| 2026-04-21 12:19 | 53.32167 | -2.33172 | 533 ft | 128 kts | 54° |
| 2026-04-21 12:19 | 53.32732 | -2.32013 | 371 ft | 129 kts | 54° |
| 2026-04-21 12:19 | 53.33309 | -2.30836 | 241 ft | 131 kts | 54° |
| 2026-04-21 12:19 | 53.33820 | -2.29778 | 225 ft | 100 kts | 51° |
| 2026-04-21 12:20 | 53.34182 | -2.29030 | 229 ft | 65 kts | 51° |
| 2026-04-21 12:20 | 53.34436 | -2.28504 | 225 ft | 53 kts | 51° |
| 2026-04-21 12:20 | 53.34650 | -2.28060 | 226 ft | 45 kts | 51° |
| 2026-04-21 12:20 | 53.34836 | -2.27677 | 222 ft | 40 kts | 51° |
| 2026-04-21 12:21 | 53.34974 | -2.27393 | 224 ft | 28 kts | 51° |
| 2026-04-21 12:21 | 53.35133 | -2.27257 | 228 ft | 26 kts | 11° |
| 2026-04-21 12:21 | 53.35293 | -2.27183 | 240 ft | 21 kts | 35° |
| 2026-04-21 12:21 | 53.35382 | -2.27014 | 246 ft | 18 kts | 51° |
| 2026-04-21 12:22 | 53.35460 | -2.26895 | 252 ft | 13 kts | 4° |
| 2026-04-21 12:22 | 53.35536 | -2.26968 | 254 ft | 13 kts | 321° |
| 2026-04-21 12:22 | 53.35604 | -2.27059 | 257 ft | 12 kts | 321° |
| 2026-04-21 12:22 | 53.35682 | -2.27165 | 255 ft | 18 kts | 321° |
| 2026-04-21 12:23 | 53.35782 | -2.27297 | 254 ft | 17 kts | 329° |
| 2026-04-21 12:23 | 53.35878 | -2.27318 | 254 ft | 10 kts | 359° |
| 2026-04-21 12:23 | 53.35931 | -2.27318 | 254 ft | 6 kts | 360° |
| 2026-04-21 12:23 | 53.35965 | -2.27319 | 254 ft | 3 kts | 359° |
| 2026-04-21 12:24 | 53.35981 | -2.27319 | 254 ft | 0 kts | 360° |
| 2026-04-21 12:24 | 53.35982 | -2.27319 | 254 ft | 0 kts | 360° |
| 2026-04-21 12:24 | 53.35994 | -2.27312 | 254 ft | 4 kts | 27° |
| 2026-04-21 12:24 | 53.36017 | -2.27270 | 254 ft | 6 kts | 54° |
| 2026-04-21 12:25 | 53.36036 | -2.27199 | 254 ft | 7 kts | 70° |
| 2026-04-21 12:25 | 53.36047 | -2.27146 | 254 ft | 2 kts | 71° |
| 2026-04-21 12:25 | 53.36049 | -2.27138 | 254 ft | 0 kts | 71° |